createdAt,value
2019-03-26T00:02:14.491Z,6.47
2019-03-26T00:04:44.815Z,5.97
2019-03-26T00:07:14.968Z,5.73
2019-03-26T00:09:46.180Z,5.07
2019-03-26T00:12:16.329Z,4.80
2019-03-26T00:14:46.375Z,5.92
2019-03-26T00:17:16.468Z,6.33
2019-03-26T00:19:46.605Z,5.90
2019-03-26T00:22:16.709Z,5.40
2019-03-26T00:24:46.791Z,5.00
2019-03-26T00:27:16.952Z,6.07
2019-03-26T00:29:47.245Z,5.33
2019-03-26T00:32:17.319Z,5.67
2019-03-26T00:34:47.351Z,4.43
2019-03-26T00:37:17.500Z,5.60
2019-03-26T00:39:47.628Z,4.40
2019-03-26T00:42:17.858Z,5.93
2019-03-26T00:44:47.931Z,4.37
2019-03-26T00:47:18.098Z,4.73
2019-03-26T00:49:48.225Z,5.03
2019-03-26T00:52:18.332Z,4.17
2019-03-26T00:54:48.446Z,4.20
2019-03-26T00:57:18.676Z,4.53
2019-03-26T00:59:48.747Z,4.47
2019-03-26T01:02:18.838Z,4.57
2019-03-26T01:04:48.898Z,4.93
2019-03-26T01:07:18.990Z,3.50
2019-03-26T01:09:50.244Z,4.85
2019-03-26T01:12:20.359Z,4.20
2019-03-26T01:14:50.432Z,5.03
2019-03-26T01:17:20.590Z,4.30
2019-03-26T01:19:50.670Z,4.40
2019-03-26T01:22:20.776Z,4.67
2019-03-26T01:24:50.894Z,4.30
2019-03-26T01:27:21.031Z,4.07
2019-03-26T01:29:51.066Z,4.27
2019-03-26T01:32:21.173Z,3.90
2019-03-26T01:34:51.303Z,4.80
2019-03-26T01:37:21.436Z,4.75
2019-03-26T01:39:51.494Z,4.83
2019-03-26T01:42:21.618Z,3.52
2019-03-26T01:44:51.832Z,3.50
2019-03-26T01:47:22.885Z,3.12
2019-03-26T01:49:53.572Z,2.95
2019-03-26T01:52:23.790Z,3.43
2019-03-26T01:54:53.837Z,3.70
2019-03-26T01:57:23.933Z,3.90
2019-03-26T01:59:54.420Z,3.27
2019-03-26T02:02:24.528Z,3.07
2019-03-26T02:05:00.341Z,3.98
2019-03-26T02:07:26.517Z,3.83
2019-03-26T02:09:56.603Z,3.17
2019-03-26T02:12:26.667Z,3.10
2019-03-26T02:14:56.725Z,4.50
2019-03-26T02:17:26.920Z,4.20
2019-03-26T02:19:56.989Z,3.63
2019-03-26T02:22:27.095Z,2.90
2019-03-26T02:24:57.174Z,4.47
2019-03-26T02:27:27.431Z,3.77
2019-03-26T02:29:57.548Z,4.10
2019-03-26T02:32:27.612Z,4.10
2019-03-26T02:34:57.811Z,3.53
2019-03-26T02:37:27.985Z,3.52
2019-03-26T02:39:58.020Z,3.35
2019-03-26T02:42:28.225Z,3.57
2019-03-26T02:44:58.302Z,3.00
2019-03-26T02:47:28.368Z,2.97
2019-03-26T02:49:58.444Z,4.17
2019-03-26T02:52:28.980Z,3.30
2019-03-26T02:54:59.103Z,4.23
2019-03-26T02:57:29.166Z,3.80
2019-03-26T02:59:59.227Z,3.57
2019-03-26T03:02:29.305Z,3.35
2019-03-26T03:04:59.361Z,3.40
2019-03-26T03:07:29.408Z,3.00
2019-03-26T03:09:59.455Z,3.30
2019-03-26T03:12:30.058Z,4.10
2019-03-26T03:15:00.490Z,4.17
2019-03-26T03:17:30.657Z,3.87
2019-03-26T03:20:00.792Z,3.87
2019-03-26T03:22:31.077Z,3.07
2019-03-26T03:25:01.164Z,2.60
2019-03-26T03:27:31.281Z,3.10
2019-03-26T03:30:01.290Z,2.57
2019-03-26T03:32:31.391Z,2.73
2019-03-26T03:35:01.453Z,2.30
2019-03-26T03:37:31.519Z,2.70
2019-03-26T03:40:01.624Z,2.90
2019-03-26T03:42:31.671Z,2.57
2019-03-26T03:45:01.736Z,2.80
2019-03-26T03:47:34.013Z,2.63
2019-03-26T03:50:04.293Z,2.67
2019-03-26T03:52:39.860Z,3.43
2019-03-26T03:55:10.401Z,1.70
2019-03-26T03:57:40.670Z,2.65
2019-03-26T04:00:34.242Z,2.20
2019-03-26T04:03:05.632Z,1.90
2019-03-26T04:05:36.000Z,2.70
2019-03-26T04:08:07.216Z,2.20
2019-03-26T04:10:37.369Z,2.07
2019-03-26T04:13:07.420Z,2.77
2019-03-26T04:15:37.554Z,2.52
2019-03-26T04:18:07.690Z,2.83
2019-03-26T04:20:37.729Z,2.97
2019-03-26T04:23:07.897Z,3.03
2019-03-26T04:25:38.055Z,2.57
2019-03-26T04:28:09.738Z,2.73
2019-03-26T04:30:39.820Z,3.33
2019-03-26T04:33:10.002Z,3.50
2019-03-26T04:35:40.081Z,3.17
2019-03-26T04:38:10.175Z,3.50
2019-03-26T04:40:40.255Z,2.97
2019-03-26T04:43:11.279Z,2.60
2019-03-26T04:45:41.360Z,2.47
2019-03-26T04:48:11.441Z,3.33
2019-03-26T04:50:41.489Z,3.00
2019-03-26T04:53:11.584Z,3.90
2019-03-26T04:55:41.626Z,3.30
2019-03-26T04:58:12.995Z,2.75
2019-03-26T05:00:43.141Z,2.27
2019-03-26T05:03:14.173Z,2.10
2019-03-26T05:05:44.286Z,3.60
2019-03-26T05:08:14.395Z,4.00
2019-03-26T05:10:44.492Z,3.03
2019-03-26T05:13:14.664Z,4.03
2019-03-26T05:15:44.779Z,3.58
2019-03-26T05:18:14.845Z,3.55
2019-03-26T05:20:44.949Z,3.12
2019-03-26T05:23:14.984Z,3.35
2019-03-26T05:25:45.074Z,2.22
2019-03-26T05:28:15.282Z,2.47
2019-03-26T05:30:45.372Z,2.90
2019-03-26T05:33:15.482Z,2.45
2019-03-26T05:35:45.540Z,1.70
2019-03-26T05:38:15.604Z,3.27
2019-03-26T05:40:45.667Z,2.90
2019-03-26T05:43:15.716Z,2.98
2019-03-26T05:45:46.897Z,3.58
2019-03-26T05:48:16.978Z,2.80
2019-03-26T05:50:47.067Z,2.60
2019-03-26T05:53:17.276Z,2.53
2019-03-26T05:55:47.373Z,2.80
2019-03-26T05:58:17.519Z,3.72
2019-03-26T06:00:47.791Z,3.70
2019-03-26T06:03:17.988Z,2.30
2019-03-26T06:05:48.074Z,2.50
2019-03-26T06:08:18.202Z,2.63
2019-03-26T06:10:48.319Z,2.30
2019-03-26T06:13:18.448Z,2.60
2019-03-26T06:15:48.658Z,2.37
2019-03-26T06:18:18.779Z,3.30
2019-03-26T06:20:48.882Z,2.80
2019-03-26T06:23:18.988Z,2.30
2019-03-26T06:25:49.157Z,2.60
2019-03-26T06:28:19.261Z,2.63
2019-03-26T06:30:49.387Z,2.40
2019-03-26T06:33:19.460Z,2.37
2019-03-26T06:35:49.784Z,2.03
2019-03-26T06:38:19.959Z,2.40
2019-03-26T06:40:50.118Z,4.28
2019-03-26T06:43:20.280Z,2.50
2019-03-26T06:45:50.344Z,2.40
2019-03-26T06:48:20.655Z,4.08
2019-03-26T06:50:50.758Z,2.50
2019-03-26T06:53:20.853Z,2.10
2019-03-26T06:55:50.910Z,2.30
2019-03-26T06:58:20.964Z,1.90
2019-03-26T07:00:51.022Z,2.40
2019-03-26T07:03:21.140Z,2.47
2019-03-26T07:05:51.283Z,2.00
2019-03-26T07:08:21.335Z,1.90
2019-03-26T07:10:51.430Z,1.87
2019-03-26T07:13:21.526Z,1.87
2019-03-26T07:15:51.565Z,2.13
2019-03-26T07:18:21.623Z,2.10
2019-03-26T07:20:51.689Z,1.90
2019-03-26T07:23:21.759Z,1.90
2019-03-26T07:25:51.863Z,2.90
2019-03-26T07:28:21.922Z,2.23
2019-03-26T07:30:51.937Z,2.67
2019-03-26T07:33:22.034Z,2.23
2019-03-26T07:35:52.110Z,2.02
2019-03-26T07:38:22.160Z,2.60
2019-03-26T07:40:52.247Z,1.77
2019-03-26T07:43:22.356Z,2.17
2019-03-26T07:45:52.504Z,2.87
2019-03-26T07:48:22.610Z,2.20
2019-03-26T07:50:52.768Z,2.13
2019-03-26T07:53:22.869Z,2.50
2019-03-26T07:55:52.951Z,1.97
2019-03-26T07:58:23.069Z,2.60
2019-03-26T08:00:53.112Z,2.33
2019-03-26T08:03:23.202Z,2.50
2019-03-26T08:05:53.319Z,3.00
2019-03-26T08:08:23.397Z,2.67
2019-03-26T08:10:53.468Z,2.60
2019-03-26T08:13:24.022Z,2.07
2019-03-26T08:15:54.030Z,2.27
2019-03-26T08:18:24.141Z,4.63
2019-03-26T08:20:57.144Z,2.00
2019-03-26T08:23:26.113Z,3.45
2019-03-26T08:25:56.288Z,2.70
2019-03-26T08:28:26.398Z,3.50
2019-03-26T08:30:56.499Z,2.10
2019-03-26T08:33:26.558Z,2.58
2019-03-26T08:35:56.700Z,2.90
2019-03-26T08:38:26.885Z,2.70
2019-03-26T08:40:56.959Z,2.97
2019-03-26T08:43:27.065Z,2.30
2019-03-26T08:45:57.170Z,2.50
2019-03-26T08:48:27.243Z,3.77
2019-03-26T08:50:57.345Z,3.13
2019-03-26T08:53:28.409Z,1.97
2019-03-26T08:55:58.629Z,2.33
2019-03-26T08:58:28.831Z,1.90
2019-03-26T09:00:58.898Z,2.00
2019-03-26T09:03:28.995Z,2.00
2019-03-26T09:05:59.063Z,2.07
2019-03-26T09:08:29.108Z,2.70
2019-03-26T09:10:59.246Z,1.97
2019-03-26T09:13:29.289Z,2.60
2019-03-26T09:15:59.350Z,2.60
2019-03-26T09:18:29.408Z,2.53
2019-03-26T09:20:59.628Z,2.10
2019-03-26T09:23:29.686Z,2.60
2019-03-26T09:25:59.868Z,3.13
2019-03-26T09:28:30.037Z,2.20
2019-03-26T09:31:00.214Z,3.47
2019-03-26T09:33:30.324Z,2.00
2019-03-26T09:36:00.407Z,2.53
2019-03-26T09:38:38.829Z,3.43
2019-03-26T09:41:02.349Z,2.27
2019-03-26T09:43:32.387Z,2.27
2019-03-26T09:46:02.514Z,2.40
2019-03-26T09:48:32.678Z,2.10
2019-03-26T09:51:02.737Z,2.50
2019-03-26T09:53:32.754Z,2.70
2019-03-26T09:56:02.894Z,2.73
2019-03-26T09:58:34.220Z,2.67
2019-03-26T10:01:04.817Z,2.60
2019-03-26T10:03:34.863Z,2.03
2019-03-26T10:06:05.090Z,2.60
2019-03-26T10:08:35.136Z,2.17
2019-03-26T10:11:05.237Z,2.80
2019-03-26T10:13:36.436Z,2.13
2019-03-26T10:16:06.663Z,2.57
2019-03-26T10:18:36.747Z,2.10
2019-03-26T10:21:06.812Z,3.00
2019-03-26T10:23:37.005Z,2.10
2019-03-26T10:26:07.149Z,2.20
2019-03-26T10:28:37.206Z,3.10
2019-03-26T10:31:07.372Z,3.90
2019-03-26T10:33:37.712Z,2.05
2019-03-26T10:36:07.929Z,1.97
2019-03-26T10:38:37.987Z,2.90
2019-03-26T10:41:08.065Z,3.63
2019-03-26T10:43:38.267Z,2.97
2019-03-26T10:46:08.490Z,3.13
2019-03-26T10:48:38.618Z,3.20
2019-03-26T10:51:08.684Z,3.85
2019-03-26T10:53:38.752Z,3.30
2019-03-26T10:56:08.892Z,2.50
2019-03-26T10:58:38.947Z,3.17
2019-03-26T11:01:09.194Z,2.87
2019-03-26T11:03:39.220Z,1.73
2019-03-26T11:06:09.279Z,3.50
2019-03-26T11:08:39.334Z,2.20
2019-03-26T11:11:09.434Z,1.80
2019-03-26T11:13:39.499Z,2.80
2019-03-26T11:16:09.606Z,2.37
2019-03-26T11:18:39.667Z,2.83
2019-03-26T11:21:09.739Z,2.63
2019-03-26T11:23:39.879Z,2.30
2019-03-26T11:26:10.689Z,2.30
2019-03-26T11:28:40.743Z,2.60
2019-03-26T11:31:10.847Z,2.43
2019-03-26T11:33:41.015Z,1.93
2019-03-26T11:36:11.097Z,2.40
2019-03-26T11:38:41.225Z,1.92
2019-03-26T11:41:11.288Z,2.40
2019-03-26T11:43:41.320Z,2.23
2019-03-26T11:46:11.424Z,2.62
2019-03-26T11:48:41.483Z,2.43
2019-03-26T11:51:11.553Z,2.43
2019-03-26T11:53:41.616Z,1.85
2019-03-26T11:56:11.667Z,2.53
2019-03-26T11:58:41.811Z,3.53
2019-03-26T12:01:12.849Z,2.33
2019-03-26T12:03:42.988Z,2.80
2019-03-26T12:06:13.088Z,2.70
2019-03-26T12:08:43.123Z,1.73
2019-03-26T12:11:13.360Z,2.73
2019-03-26T12:13:43.433Z,2.33
2019-03-26T12:16:13.494Z,2.50
2019-03-26T12:18:43.591Z,2.10
2019-03-26T12:21:13.647Z,2.25
2019-03-26T12:23:43.705Z,2.20
2019-03-26T12:26:13.853Z,2.10
2019-03-26T12:28:43.960Z,3.43
2019-03-26T12:31:14.110Z,2.27
2019-03-26T12:33:44.159Z,2.50
2019-03-26T12:36:14.316Z,2.30
2019-03-26T12:38:44.374Z,2.83
2019-03-26T12:41:14.516Z,2.17
2019-03-26T12:43:44.609Z,2.70
2019-03-26T12:46:15.041Z,2.00
2019-03-26T12:48:46.896Z,1.85
2019-03-26T12:51:16.988Z,2.20
2019-03-26T12:53:47.098Z,2.10
2019-03-26T12:56:17.209Z,1.70
2019-03-26T12:58:47.366Z,2.10
2019-03-26T13:01:17.444Z,1.80
2019-03-26T13:03:47.490Z,2.10
2019-03-26T13:06:19.231Z,1.67
2019-03-26T13:08:49.307Z,1.10
2019-03-26T13:11:20.543Z,1.63
2019-03-26T13:13:50.649Z,1.30
2019-03-26T13:16:20.750Z,1.30
2019-03-26T13:18:50.904Z,1.10
2019-03-26T13:21:20.965Z,1.13
2019-03-26T13:23:51.153Z,1.50
2019-03-26T13:26:21.222Z,1.83
2019-03-26T13:28:51.341Z,1.30
2019-03-26T13:31:21.524Z,1.30
2019-03-26T13:33:51.621Z,2.00
2019-03-26T13:36:21.659Z,1.17
2019-03-26T13:38:51.914Z,1.40
2019-03-26T13:41:22.031Z,0.98
2019-03-26T13:43:53.194Z,1.20
2019-03-26T13:46:23.276Z,1.30
2019-03-26T13:48:53.418Z,1.50
2019-03-26T13:51:23.472Z,1.73
2019-03-26T13:53:53.569Z,1.00
2019-03-26T13:56:23.638Z,1.65
2019-03-26T13:58:53.693Z,1.20
2019-03-26T14:01:23.736Z,1.20
2019-03-26T14:03:53.856Z,1.20
2019-03-26T14:06:24.025Z,1.23
2019-03-26T14:08:54.081Z,1.73
2019-03-26T14:11:24.185Z,1.20
2019-03-26T14:13:54.231Z,1.30
2019-03-26T14:16:24.342Z,1.10
2019-03-26T14:18:54.474Z,1.17
2019-03-26T14:21:24.569Z,1.60
2019-03-26T14:23:54.653Z,1.20
2019-03-26T14:26:24.696Z,1.42
2019-03-26T14:28:54.752Z,1.52
2019-03-26T14:31:24.810Z,2.00
2019-03-26T14:33:54.937Z,2.00
2019-03-26T14:36:25.082Z,1.83
2019-03-26T14:38:55.295Z,1.80
2019-03-26T14:41:25.387Z,1.10
2019-03-26T14:43:55.533Z,1.70
2019-03-26T14:46:25.650Z,1.60
2019-03-26T14:48:55.724Z,1.27
2019-03-26T14:51:25.773Z,1.47
2019-03-26T14:53:56.014Z,1.97
2019-03-26T14:56:26.123Z,1.73
2019-03-26T14:58:56.164Z,1.73
2019-03-26T15:01:26.245Z,1.62
2019-03-26T15:03:56.324Z,1.87
2019-03-26T15:06:26.371Z,1.90
2019-03-26T15:08:57.505Z,1.57
2019-03-26T15:11:27.537Z,1.73
2019-03-26T15:13:57.735Z,2.05
2019-03-26T15:16:27.809Z,1.90
2019-03-26T15:18:57.897Z,1.30
2019-03-26T15:21:27.952Z,2.50
2019-03-26T15:23:58.005Z,1.70
2019-03-26T15:26:28.052Z,2.10
2019-03-26T15:28:58.099Z,2.80
2019-03-26T15:31:28.153Z,1.83
2019-03-26T15:33:58.573Z,2.30
2019-03-26T15:36:28.669Z,1.83
2019-03-26T15:39:00.080Z,2.10
2019-03-26T15:41:30.591Z,1.67
2019-03-26T15:44:00.701Z,1.10
2019-03-26T15:46:30.848Z,1.50
2019-03-26T15:49:02.182Z,1.50
2019-03-26T15:51:32.246Z,1.30
2019-03-26T15:54:02.329Z,1.90
2019-03-26T15:56:32.479Z,1.67
2019-03-26T15:59:03.177Z,2.15
2019-03-26T16:01:33.309Z,2.00
2019-03-26T16:04:03.342Z,1.57
2019-03-26T16:06:33.405Z,2.07
2019-03-26T16:09:04.757Z,1.73
2019-03-26T16:11:36.493Z,1.90
2019-03-26T16:14:06.617Z,1.47
2019-03-26T16:16:36.716Z,1.53
2019-03-26T16:19:06.764Z,1.27
2019-03-26T16:21:37.002Z,1.83
2019-03-26T16:24:07.154Z,2.00
2019-03-26T16:26:37.326Z,1.80
2019-03-26T16:29:07.383Z,3.40
2019-03-26T16:31:37.475Z,1.77
2019-03-26T16:34:07.536Z,1.63
2019-03-26T16:36:37.634Z,2.20
2019-03-26T16:39:08.355Z,1.42
2019-03-26T16:41:48.453Z,2.40
2019-03-26T16:44:10.270Z,2.23
2019-03-26T16:46:40.329Z,2.60
2019-03-26T16:49:11.374Z,1.93
2019-03-26T16:51:41.552Z,1.60
2019-03-26T16:54:11.629Z,1.73
2019-03-26T16:56:41.718Z,1.57
2019-03-26T16:59:11.925Z,1.70
2019-03-26T17:01:41.997Z,1.87
2019-03-26T17:04:12.073Z,1.77
2019-03-26T17:06:42.363Z,1.83
2019-03-26T17:09:12.426Z,1.83
2019-03-26T17:11:42.497Z,1.87
2019-03-26T17:14:12.653Z,2.07
2019-03-26T17:16:42.739Z,2.03
2019-03-26T17:19:12.983Z,3.00
2019-03-26T17:21:43.089Z,2.57
2019-03-26T17:24:13.280Z,1.95
2019-03-26T17:26:43.449Z,2.67
2019-03-26T17:29:13.802Z,2.60
2019-03-26T17:31:44.034Z,2.20
2019-03-26T17:34:14.092Z,2.40
2019-03-26T17:36:44.228Z,2.30
2019-03-26T17:39:14.977Z,1.90
2019-03-26T17:41:45.177Z,2.40
2019-03-26T17:44:15.333Z,2.27
2019-03-26T17:46:45.469Z,2.23
2019-03-26T17:49:15.531Z,1.85
2019-03-26T17:51:45.747Z,2.00
2019-03-26T17:54:15.805Z,2.03
2019-03-26T17:56:47.321Z,2.30
2019-03-26T17:59:17.800Z,2.27
2019-03-26T18:01:48.028Z,1.90
2019-03-26T18:04:18.411Z,1.83
2019-03-26T18:06:48.499Z,5.30
2019-03-26T18:09:18.787Z,2.50
2019-03-26T18:11:48.863Z,2.10
2019-03-26T18:14:19.045Z,2.43
2019-03-26T18:16:49.456Z,2.00
2019-03-26T18:19:19.674Z,2.40
2019-03-26T18:21:51.849Z,1.80
2019-03-26T18:24:21.672Z,1.98
2019-03-26T18:26:51.870Z,2.10
2019-03-26T18:29:21.975Z,3.85
2019-03-26T18:31:52.195Z,1.80
2019-03-26T18:34:22.292Z,1.87
2019-03-26T18:36:52.406Z,2.80
2019-03-26T18:39:22.628Z,2.00
2019-03-26T18:41:52.748Z,1.80
2019-03-26T18:44:22.892Z,1.90
2019-03-26T18:46:54.058Z,2.13
2019-03-26T18:49:24.166Z,2.93
2019-03-26T18:51:54.218Z,2.17
2019-03-26T18:54:24.440Z,2.87
2019-03-26T18:56:54.527Z,2.90
2019-03-26T18:59:24.612Z,3.60
2019-03-26T19:01:54.710Z,3.00
2019-03-26T19:04:24.763Z,3.27
2019-03-26T19:06:54.922Z,3.90
2019-03-26T19:09:25.012Z,2.47
2019-03-26T19:11:55.142Z,2.20
2019-03-26T19:14:25.250Z,2.97
2019-03-26T19:16:55.470Z,2.60
2019-03-26T19:19:25.588Z,2.27
2019-03-26T19:21:55.644Z,2.83
2019-03-26T19:24:25.772Z,3.37
2019-03-26T19:26:55.841Z,2.62
2019-03-26T19:29:25.967Z,3.37
2019-03-26T19:31:56.083Z,2.40
2019-03-26T19:34:26.415Z,2.77
2019-03-26T19:36:56.499Z,2.63
2019-03-26T19:39:26.640Z,3.27
2019-03-26T19:41:56.745Z,3.30
2019-03-26T19:44:26.834Z,3.27
2019-03-26T19:46:56.967Z,2.53
2019-03-26T19:49:27.150Z,3.53
2019-03-26T19:51:57.551Z,4.40
2019-03-26T19:54:27.759Z,4.37
2019-03-26T19:56:57.906Z,3.77
2019-03-26T19:59:28.004Z,4.30
2019-03-26T20:01:58.461Z,4.60
2019-03-26T20:04:28.543Z,3.07
2019-03-26T20:06:58.697Z,3.10
2019-03-26T20:09:28.886Z,3.80
2019-03-26T20:11:59.099Z,3.70
2019-03-26T20:14:29.160Z,3.70
2019-03-26T20:16:59.265Z,4.20
2019-03-26T20:19:29.443Z,3.60
2019-03-26T20:21:59.555Z,3.63
2019-03-26T20:24:29.644Z,2.93
2019-03-26T20:26:59.811Z,2.80
2019-03-26T20:29:29.881Z,4.07
2019-03-26T20:31:59.965Z,3.83
2019-03-26T20:34:32.663Z,2.97
2019-03-26T20:37:02.811Z,2.43
2019-03-26T20:39:33.002Z,3.52
2019-03-26T20:42:03.087Z,5.13
2019-03-26T20:44:33.139Z,4.47
2019-03-26T20:47:03.214Z,4.53
2019-03-26T20:49:33.400Z,4.03
2019-03-26T20:52:03.628Z,3.80
2019-03-26T20:54:34.778Z,2.70
2019-03-26T20:57:05.042Z,2.93
2019-03-26T20:59:35.316Z,3.23
2019-03-26T21:02:05.501Z,2.77
2019-03-26T21:04:35.643Z,3.22
2019-03-26T21:07:05.707Z,2.95
2019-03-26T21:09:35.885Z,4.20
2019-03-26T21:12:06.087Z,3.17
2019-03-26T21:14:36.218Z,3.00
2019-03-26T21:17:06.361Z,3.07
2019-03-26T21:19:36.520Z,3.90
2019-03-26T21:22:06.688Z,3.10
2019-03-26T21:24:36.869Z,3.60
2019-03-26T21:27:09.034Z,3.30
2019-03-26T21:29:39.194Z,4.03
2019-03-26T21:32:09.456Z,2.70
2019-03-26T21:34:39.693Z,3.20
2019-03-26T21:37:09.787Z,3.43
2019-03-26T21:39:40.002Z,2.90
2019-03-26T21:42:10.203Z,3.10
2019-03-26T21:44:40.313Z,2.90
2019-03-26T21:47:10.554Z,5.13
2019-03-26T21:49:40.643Z,3.00
2019-03-26T21:52:10.719Z,3.40
2019-03-26T21:54:40.855Z,3.40
2019-03-26T21:57:11.001Z,2.53
2019-03-26T21:59:41.332Z,3.10
2019-03-26T22:02:11.412Z,3.57
2019-03-26T22:04:41.628Z,3.13
2019-03-26T22:07:11.691Z,2.53
2019-03-26T22:09:41.761Z,3.25
2019-03-26T22:12:11.948Z,4.30
2019-03-26T22:14:43.227Z,3.07
2019-03-26T22:17:13.360Z,3.07
2019-03-26T22:19:43.493Z,3.13
2019-03-26T22:22:14.007Z,2.52
2019-03-26T22:24:44.119Z,3.58
2019-03-26T22:27:14.423Z,2.65
2019-03-26T22:29:44.681Z,3.13
2019-03-26T22:32:16.028Z,3.17
2019-03-26T22:34:46.181Z,2.80
2019-03-26T22:37:16.301Z,3.23
2019-03-26T22:39:46.427Z,2.67
2019-03-26T22:42:16.683Z,3.15
2019-03-26T22:44:46.826Z,3.77
2019-03-26T22:47:16.882Z,3.35
2019-03-26T22:49:46.943Z,3.23
2019-03-26T22:52:17.000Z,3.80
2019-03-26T22:54:47.099Z,3.30
2019-03-26T22:57:18.321Z,3.77
2019-03-26T22:59:48.562Z,3.72
2019-03-26T23:02:18.749Z,3.75
2019-03-26T23:04:48.834Z,3.10
2019-03-26T23:07:19.026Z,3.10
2019-03-26T23:09:49.139Z,3.67
2019-03-26T23:12:19.612Z,2.90
2019-03-26T23:14:51.240Z,3.60
2019-03-26T23:17:21.416Z,3.00
2019-03-26T23:19:51.515Z,3.55
2019-03-26T23:22:21.688Z,2.98
2019-03-26T23:24:51.896Z,2.80
2019-03-26T23:27:21.976Z,2.95
2019-03-26T23:29:52.088Z,2.70
2019-03-26T23:32:22.285Z,3.67
2019-03-26T23:34:52.502Z,3.90
2019-03-26T23:37:22.601Z,4.12
2019-03-26T23:39:52.687Z,4.50
2019-03-26T23:42:22.904Z,4.37
2019-03-26T23:44:58.601Z,4.15
2019-03-26T23:47:24.914Z,3.62
2019-03-26T23:49:55.261Z,3.60
2019-03-26T23:52:25.316Z,3.25
2019-03-26T23:54:55.559Z,3.80
2019-03-26T23:57:25.637Z,3.50
2019-03-26T23:59:55.815Z,3.50
